createdAt,value
2022-08-20T00:00:42.059Z,99990.00
2022-08-20T00:03:15.651Z,99991.98
2022-08-20T00:05:52.108Z,99987.66
2022-08-20T00:08:27.981Z,99981.90
2022-08-20T00:11:00.070Z,99977.29
2022-08-20T00:13:35.948Z,99982.20
2022-08-20T00:16:09.558Z,99979.05
2022-08-20T00:18:41.272Z,99980.27
2022-08-20T00:21:18.633Z,99978.77
2022-08-20T00:23:52.356Z,99979.86
2022-08-20T00:26:24.510Z,99983.13
2022-08-20T00:28:55.849Z,99984.52
2022-08-20T00:31:27.620Z,99988.04
2022-08-20T00:33:58.450Z,99978.13
2022-08-20T00:36:32.373Z,99974.72
2022-08-20T00:39:04.247Z,99974.23
2022-08-20T00:41:35.164Z,99976.23
2022-08-20T00:44:13.198Z,99975.74
2022-08-20T00:46:45.731Z,99981.14
2022-08-20T00:49:19.680Z,99978.95
2022-08-20T00:51:54.100Z,99979.74
2022-08-20T00:54:29.042Z,99981.48
2022-08-20T00:57:04.610Z,99982.23
2022-08-20T00:59:39.925Z,99979.91
2022-08-20T01:02:14.619Z,99982.27
2022-08-20T01:04:47.924Z,99984.86
2022-08-20T01:07:20.540Z,99987.02
2022-08-20T01:09:58.305Z,99986.67
2022-08-20T01:12:32.590Z,99983.28
2022-08-20T01:15:06.281Z,99980.80
2022-08-20T01:17:41.765Z,99981.27
2022-08-20T01:20:16.633Z,99979.41
2022-08-20T01:23:09.070Z,99980.55
2022-08-20T01:25:49.933Z,99983.65
2022-08-20T01:28:24.102Z,99986.60
2022-08-20T01:30:55.213Z,99991.74
2022-08-20T01:33:26.550Z,99990.70
2022-08-20T01:35:57.582Z,99993.27
2022-08-20T01:38:28.691Z,99992.11
2022-08-20T01:41:12.604Z,99986.09
2022-08-20T01:43:42.036Z,99988.40
2022-08-20T01:46:15.142Z,99992.87
2022-08-20T01:48:47.865Z,99995.72
2022-08-20T01:51:21.720Z,99996.45
2022-08-20T01:53:55.219Z,99999.36
2022-08-20T01:56:31.144Z,100000.08
2022-08-20T01:59:07.377Z,100001.20
2022-08-20T02:01:46.141Z,100000.61
2022-08-20T02:04:18.776Z,100002.80
2022-08-20T02:06:56.362Z,100001.14
2022-08-20T02:09:30.660Z,100001.88
2022-08-20T02:12:03.032Z,99998.17
2022-08-20T02:14:34.424Z,99999.36
2022-08-20T02:17:07.178Z,99999.86
2022-08-20T02:19:41.172Z,99999.67
2022-08-20T02:22:18.504Z,99998.92
2022-08-20T02:24:49.504Z,100000.23
2022-08-20T02:27:23.569Z,100002.91
2022-08-20T02:29:54.644Z,100001.53
2022-08-20T02:32:34.241Z,100001.64
2022-08-20T02:35:08.719Z,99997.91
2022-08-20T02:37:41.560Z,100000.11
2022-08-20T02:40:16.452Z,100001.30
2022-08-20T02:42:47.850Z,100003.48
2022-08-20T02:45:20.033Z,100004.02
2022-08-20T02:47:54.333Z,100000.11
2022-08-20T02:50:27.109Z,99991.55
2022-08-20T02:52:57.830Z,99994.85
2022-08-20T02:55:28.556Z,99992.88
2022-08-20T02:58:00.676Z,99988.04
2022-08-20T03:00:38.462Z,99987.27
2022-08-20T03:03:10.749Z,99980.17
2022-08-20T03:05:40.813Z,99976.36
2022-08-20T03:08:10.866Z,99976.61
2022-08-20T03:10:43.934Z,99973.36
2022-08-20T03:13:15.883Z,99973.77
2022-08-20T03:15:48.059Z,99969.20
2022-08-20T03:18:20.990Z,99967.33
2022-08-20T03:20:52.401Z,99969.27
2022-08-20T03:23:23.736Z,99972.78
2022-08-20T03:25:54.462Z,99974.41
2022-08-20T03:28:25.114Z,99976.44
2022-08-20T03:30:56.551Z,99976.89
2022-08-20T03:33:27.661Z,99981.59
2022-08-20T03:35:58.382Z,99979.85
2022-08-20T03:38:33.011Z,99982.68
2022-08-20T03:41:04.960Z,99979.71
2022-08-20T03:43:37.413Z,99979.65
2022-08-20T03:46:22.955Z,99978.08
2022-08-20T03:48:59.706Z,99983.08
2022-08-20T03:51:43.989Z,99989.25
2022-08-20T03:54:23.202Z,99985.90
2022-08-20T03:56:53.862Z,99988.81
2022-08-20T03:59:24.635Z,99991.30
2022-08-20T04:01:55.387Z,99992.38
2022-08-20T04:04:26.195Z,99996.11
2022-08-20T04:06:57.131Z,99992.86
2022-08-20T04:09:28.922Z,99994.86
2022-08-20T04:12:00.283Z,99990.85
2022-08-20T04:14:30.964Z,99991.78
2022-08-20T04:17:07.853Z,99997.59
2022-08-20T04:19:39.306Z,99996.73
2022-08-20T04:22:10.796Z,99994.20
2022-08-20T04:24:41.452Z,99992.27
2022-08-20T04:27:14.841Z,99990.64
2022-08-20T04:29:45.727Z,99988.30
2022-08-20T04:32:17.913Z,99985.45
2022-08-20T04:34:51.477Z,99984.81
2022-08-20T04:37:24.252Z,99986.59
2022-08-20T04:40:12.734Z,99989.96
2022-08-20T04:42:43.540Z,99992.52
2022-08-20T04:45:14.989Z,99995.23
2022-08-20T04:47:46.364Z,100003.77
2022-08-20T04:50:18.285Z,99999.02
2022-08-20T04:52:50.117Z,100001.69
2022-08-20T04:55:21.071Z,100006.83
2022-08-20T04:57:52.551Z,100007.75
2022-08-20T05:00:23.405Z,100009.80
2022-08-20T05:02:54.108Z,100010.62
2022-08-20T05:05:24.955Z,100010.74
2022-08-20T05:07:56.478Z,100013.81
2022-08-20T05:10:27.731Z,100011.83
2022-08-20T05:12:58.907Z,100012.52
2022-08-20T05:15:29.655Z,100012.13
2022-08-20T05:18:03.081Z,100012.56
2022-08-20T05:20:39.928Z,100011.66
2022-08-20T05:23:12.799Z,100010.81
2022-08-20T05:25:45.527Z,100015.63
2022-08-20T05:28:22.027Z,100013.08
2022-08-20T05:30:54.579Z,100012.83
2022-08-20T05:33:25.344Z,100009.70
2022-08-20T05:35:57.632Z,100014.48
2022-08-20T05:38:30.993Z,100011.02
2022-08-20T05:41:02.125Z,100017.30
2022-08-20T05:43:33.587Z,100017.85
2022-08-20T05:46:04.275Z,100018.83
2022-08-20T05:48:37.798Z,100021.98
2022-08-20T05:51:12.070Z,100022.14
2022-08-20T05:53:45.551Z,100027.01
2022-08-20T05:56:16.301Z,100032.09
2022-08-20T05:58:47.070Z,100031.24
2022-08-20T06:01:17.778Z,100032.90
2022-08-20T06:04:06.060Z,100034.58
2022-08-20T06:06:45.574Z,100039.29
2022-08-20T06:09:28.068Z,100041.28
2022-08-20T06:12:04.281Z,100040.87
2022-08-20T06:14:35.951Z,100039.64
2022-08-20T06:17:09.699Z,100043.18
2022-08-20T06:19:44.285Z,100047.09
2022-08-20T06:22:19.064Z,100048.22
2022-08-20T06:25:07.917Z,100044.51
2022-08-20T06:27:41.254Z,100046.35
2022-08-20T06:30:15.294Z,100052.04
2022-08-20T06:32:46.786Z,100057.23
2022-08-20T06:35:19.994Z,100057.88
2022-08-20T06:37:52.951Z,100060.92
2022-08-20T06:40:26.443Z,100069.45
2022-08-20T06:42:58.427Z,100071.73
2022-08-20T06:45:29.331Z,100074.10
2022-08-20T06:48:03.090Z,100077.78
2022-08-20T06:50:43.151Z,100078.38
2022-08-20T06:53:21.684Z,100078.25
2022-08-20T06:55:55.059Z,100080.93
2022-08-20T06:58:36.126Z,100080.30
2022-08-20T07:01:11.264Z,100080.55
2022-08-20T07:03:55.679Z,100083.42
2022-08-20T07:06:27.374Z,100084.46
2022-08-20T07:08:58.088Z,100082.55
2022-08-20T07:11:29.331Z,100084.63
2022-08-20T07:14:01.305Z,100083.31
2022-08-20T07:16:32.979Z,100080.77
2022-08-20T07:19:03.752Z,100085.13
2022-08-20T07:21:34.416Z,100084.35
2022-08-20T07:24:06.279Z,100085.10
2022-08-20T07:26:37.177Z,100087.48
2022-08-20T07:29:07.896Z,100085.70
2022-08-20T07:31:56.469Z,100091.88
2022-08-20T07:34:27.162Z,100097.96
2022-08-20T07:37:01.519Z,100104.89
2022-08-20T07:39:32.299Z,100103.27
2022-08-20T07:42:07.261Z,100105.69
2022-08-20T07:44:39.450Z,100104.52
2022-08-20T07:47:10.332Z,100102.16
2022-08-20T07:49:41.990Z,100104.13
2022-08-20T07:52:13.276Z,100109.09
2022-08-20T07:54:44.239Z,100109.66
2022-08-20T07:57:17.414Z,100111.65
2022-08-20T07:59:48.847Z,100115.98
2022-08-20T08:02:19.533Z,100115.89
2022-08-20T08:04:50.261Z,100116.39
2022-08-20T08:07:22.093Z,100115.48
2022-08-20T08:09:53.318Z,100117.95
2022-08-20T08:12:26.413Z,100115.90
2022-08-20T08:14:57.182Z,100120.53
2022-08-20T08:17:31.281Z,100124.42
2022-08-20T08:20:02.334Z,100128.62
2022-08-20T08:22:33.956Z,100129.31
2022-08-20T08:25:05.676Z,100130.09
2022-08-20T08:27:36.366Z,100135.62
2022-08-20T08:30:09.376Z,100140.69
2022-08-20T08:33:00.732Z,100143.83
2022-08-20T08:35:32.655Z,100148.64
2022-08-20T08:38:02.577Z,100151.95
2022-08-20T08:40:34.957Z,100153.48
2022-08-20T08:43:07.214Z,100149.27
2022-08-20T08:45:45.733Z,100153.09
2022-08-20T08:48:21.274Z,100150.82
2022-08-20T08:50:57.592Z,100155.06
2022-08-20T08:53:32.080Z,100150.58
2022-08-20T08:56:04.383Z,100153.42
2022-08-20T08:58:35.371Z,100153.48
2022-08-20T09:01:53.130Z,100155.77
2022-08-20T09:04:06.057Z,100152.05
2022-08-20T09:06:37.126Z,100152.77
2022-08-20T09:09:12.200Z,100154.70
2022-08-20T09:11:51.337Z,100153.05
2022-08-20T09:14:25.021Z,100158.15
2022-08-20T09:16:55.748Z,100157.73
2022-08-20T09:19:26.608Z,100155.06
2022-08-20T09:21:57.536Z,100157.11
2022-08-20T09:24:28.182Z,100155.15
2022-08-20T09:26:58.853Z,100149.05
2022-08-20T09:29:30.493Z,100147.47
2022-08-20T09:32:10.791Z,100151.81
2022-08-20T09:34:43.412Z,100151.41
2022-08-20T09:37:14.585Z,100150.95
2022-08-20T09:39:45.545Z,100151.46
2022-08-20T09:42:19.427Z,100150.20
2022-08-20T09:44:51.565Z,100151.01
2022-08-20T09:47:22.503Z,100155.01
2022-08-20T09:49:53.621Z,100155.85
2022-08-20T09:52:26.665Z,100156.36
2022-08-20T09:55:01.270Z,100155.75
2022-08-20T09:57:33.972Z,100159.45
2022-08-20T10:00:11.977Z,100157.66
2022-08-20T10:02:45.587Z,100159.09
2022-08-20T10:05:16.887Z,100162.69
2022-08-20T10:07:47.660Z,100160.09
2022-08-20T10:10:18.797Z,100160.99
2022-08-20T10:12:54.226Z,100162.13
2022-08-20T10:15:25.736Z,100165.45
2022-08-20T10:17:57.495Z,100166.94
2022-08-20T10:20:28.662Z,100167.72
2022-08-20T10:22:59.764Z,100166.25
2022-08-20T10:25:30.468Z,100168.33
2022-08-20T10:28:01.127Z,100171.77
2022-08-20T10:30:32.004Z,100176.57
2022-08-20T10:33:02.870Z,100179.04
2022-08-20T10:35:33.797Z,100180.79
2022-08-20T10:38:04.494Z,100182.73
2022-08-20T10:40:35.289Z,100188.33
2022-08-20T10:43:06.205Z,100190.08
2022-08-20T10:45:36.966Z,100187.00
2022-08-20T10:48:11.239Z,100185.55
2022-08-20T10:50:41.935Z,100184.61
2022-08-20T10:53:13.124Z,100186.65
2022-08-20T10:55:44.193Z,100185.70
2022-08-20T10:58:15.077Z,100182.64
2022-08-20T11:00:47.298Z,100181.14
2022-08-20T11:03:18.093Z,100186.96
2022-08-20T11:05:48.864Z,100189.30
2022-08-20T11:08:22.638Z,100188.88
2022-08-20T11:11:05.363Z,100187.70
2022-08-20T11:13:37.015Z,100193.39
2022-08-20T11:16:08.423Z,100189.86
2022-08-20T11:18:40.975Z,100190.27
2022-08-20T11:21:14.550Z,100190.59
2022-08-20T11:23:45.288Z,100190.32
2022-08-20T11:26:23.279Z,100191.70
2022-08-20T11:28:52.521Z,100197.50
2022-08-20T11:31:23.242Z,100198.02
2022-08-20T11:33:53.979Z,100202.14
2022-08-20T11:36:26.470Z,100202.54
2022-08-20T11:38:57.216Z,100204.42
2022-08-20T11:41:27.973Z,100205.75
2022-08-20T11:44:20.390Z,100206.84
2022-08-20T11:46:49.455Z,100216.73
2022-08-20T11:49:20.273Z,100219.14
2022-08-20T11:51:51.158Z,100219.98
2022-08-20T11:54:21.932Z,100222.69
2022-08-20T11:56:52.969Z,100227.12
2022-08-20T11:59:23.693Z,100232.34
2022-08-20T12:02:02.227Z,100231.45
2022-08-20T12:04:35.193Z,100232.71
2022-08-20T12:07:15.655Z,100235.36
2022-08-20T12:09:51.387Z,100230.39
2022-08-20T12:12:24.158Z,100233.67
2022-08-20T12:14:56.101Z,100232.52
2022-08-20T12:17:27.239Z,100231.23
2022-08-20T12:19:59.821Z,100232.29
2022-08-20T12:22:30.712Z,100237.23
2022-08-20T12:25:01.580Z,100233.44
2022-08-20T12:27:34.034Z,100237.24
2022-08-20T12:30:08.166Z,100240.81
2022-08-20T12:32:39.265Z,100242.98
2022-08-20T12:35:11.982Z,100240.56
2022-08-20T12:37:43.630Z,100241.09
2022-08-20T12:40:32.130Z,100239.60
2022-08-20T12:43:05.292Z,100240.83
2022-08-20T12:45:36.941Z,100238.06
2022-08-20T12:48:10.844Z,100239.70
2022-08-20T12:50:45.660Z,100242.88
2022-08-20T12:53:16.450Z,100245.31
2022-08-20T12:55:47.558Z,100244.79
2022-08-20T12:58:19.251Z,100246.56
2022-08-20T13:00:50.880Z,100242.05
2022-08-20T13:03:22.609Z,100242.43
2022-08-20T13:05:53.488Z,100240.68
2022-08-20T13:08:24.384Z,100244.47
2022-08-20T13:10:55.211Z,100241.87
2022-08-20T13:13:25.951Z,100237.94
2022-08-20T13:15:56.633Z,100237.13
2022-08-20T13:18:27.344Z,100233.06
2022-08-20T13:20:58.059Z,100237.08
2022-08-20T13:23:29.504Z,100241.91
2022-08-20T13:26:00.465Z,100248.13
2022-08-20T13:28:31.790Z,100249.89
2022-08-20T13:31:03.517Z,100248.95
2022-08-20T13:33:34.484Z,100247.66
2022-08-20T13:36:06.090Z,100247.58
2022-08-20T13:38:36.881Z,100246.61
2022-08-20T13:41:07.858Z,100249.98
2022-08-20T13:43:38.644Z,100248.19
2022-08-20T13:46:09.530Z,100252.75
2022-08-20T13:48:40.313Z,100249.54
2022-08-20T13:51:11.169Z,100257.34
2022-08-20T13:53:41.986Z,100256.99
2022-08-20T13:56:14.906Z,100259.28
2022-08-20T13:58:45.634Z,100258.52
2022-08-20T14:01:16.639Z,100251.73
2022-08-20T14:03:47.942Z,100254.80
2022-08-20T14:06:19.277Z,100258.61
2022-08-20T14:08:50.019Z,100251.36
2022-08-20T14:11:20.814Z,100250.63
2022-08-20T14:13:51.635Z,100250.73
2022-08-20T14:16:27.645Z,100256.02
2022-08-20T14:19:13.330Z,100253.52
2022-08-20T14:21:44.081Z,100257.64
2022-08-20T14:24:14.835Z,100259.05
2022-08-20T14:26:45.696Z,100259.06
2022-08-20T14:29:19.750Z,100264.29
2022-08-20T14:31:51.032Z,100266.25
2022-08-20T14:34:21.747Z,100255.36
2022-08-20T14:36:53.278Z,100259.77
2022-08-20T14:39:26.174Z,100258.20
2022-08-20T14:41:57.043Z,100270.24
2022-08-20T14:44:29.695Z,100270.56
2022-08-20T14:47:10.388Z,100262.06
2022-08-20T14:49:41.213Z,100261.34
2022-08-20T14:52:12.575Z,100265.25
2022-08-20T14:54:44.511Z,100267.78
2022-08-20T14:57:16.296Z,100260.73
2022-08-20T14:59:48.109Z,100257.38
2022-08-20T15:02:19.825Z,100257.32
2022-08-20T15:04:53.932Z,100254.08
2022-08-20T15:07:31.079Z,100251.91
2022-08-20T15:10:04.029Z,100257.61
2022-08-20T15:12:35.413Z,100256.02
2022-08-20T15:15:15.380Z,100254.27
2022-08-20T15:17:49.082Z,100258.98
2022-08-20T15:20:23.531Z,100256.73
2022-08-20T15:22:55.988Z,100259.27
2022-08-20T15:25:36.087Z,100255.34
2022-08-20T15:28:10.465Z,100255.12
2022-08-20T15:30:42.836Z,100253.77
2022-08-20T15:33:13.868Z,100255.48
2022-08-20T15:35:44.604Z,100253.22
2022-08-20T15:38:15.370Z,100258.38
2022-08-20T15:40:46.218Z,100258.08
2022-08-20T15:43:16.917Z,100260.84
2022-08-20T15:45:47.723Z,100261.44
2022-08-20T15:48:22.167Z,100264.39
2022-08-20T15:51:16.673Z,100261.45
2022-08-20T15:53:56.059Z,100264.40
2022-08-20T15:56:40.710Z,100264.92
2022-08-20T15:59:23.901Z,100268.15
2022-08-20T16:02:05.185Z,100267.98
2022-08-20T16:05:04.631Z,100271.36
2022-08-20T16:07:43.906Z,100272.17
2022-08-20T16:10:23.943Z,100272.29
2022-08-20T16:12:59.110Z,100274.39
2022-08-20T16:15:35.463Z,100273.21
2022-08-20T16:18:11.554Z,100270.30
2022-08-20T16:20:45.410Z,100271.52
2022-08-20T16:23:21.822Z,100271.31
2022-08-20T16:26:06.229Z,100270.23
2022-08-20T16:28:47.879Z,100271.15
2022-08-20T16:31:23.673Z,100270.98
2022-08-20T16:34:04.381Z,100271.70
2022-08-20T16:36:44.522Z,100278.08
2022-08-20T16:39:22.036Z,100279.12
2022-08-20T16:41:55.843Z,100287.58
2022-08-20T16:44:33.688Z,100287.05
2022-08-20T16:47:14.874Z,100289.74
2022-08-20T16:49:51.023Z,100286.38
2022-08-20T16:52:22.334Z,100294.88
2022-08-20T16:54:53.138Z,100296.16
2022-08-20T16:57:23.957Z,100298.88
2022-08-20T17:00:00.981Z,100298.67
2022-08-20T17:02:31.695Z,100299.13
2022-08-20T17:05:06.622Z,100305.69
2022-08-20T17:07:46.549Z,100307.63
2022-08-20T17:10:24.659Z,100308.89
2022-08-20T17:12:59.509Z,100307.54
2022-08-20T17:15:33.100Z,100305.29
2022-08-20T17:18:21.290Z,100305.98
2022-08-20T17:20:52.850Z,100306.21
2022-08-20T17:23:23.988Z,100305.36
2022-08-20T17:26:04.260Z,100309.08
2022-08-20T17:28:36.472Z,100313.69
2022-08-20T17:31:07.373Z,100317.67
2022-08-20T17:33:40.405Z,100320.11
2022-08-20T17:36:19.822Z,100324.74
2022-08-20T17:38:53.215Z,100326.61
2022-08-20T17:41:27.039Z,100327.31
2022-08-20T17:44:03.862Z,100327.90
2022-08-20T17:46:40.879Z,100328.33
2022-08-20T17:49:16.573Z,100328.19
2022-08-20T17:51:53.194Z,100331.92
2022-08-20T17:54:27.857Z,100333.34
2022-08-20T17:57:04.766Z,100333.61
2022-08-20T18:00:01.356Z,100335.50
2022-08-20T18:02:32.697Z,100340.94
2022-08-20T18:05:07.490Z,100342.88
2022-08-20T18:07:46.650Z,100342.64
2022-08-20T18:10:24.974Z,100343.23
2022-08-20T18:13:01.020Z,100345.79
2022-08-20T18:15:35.683Z,100342.45
2022-08-20T18:18:19.182Z,100349.61
2022-08-20T18:21:12.412Z,100347.80
2022-08-20T18:23:47.665Z,100348.40
2022-08-20T18:26:22.588Z,100347.95
2022-08-20T18:28:58.703Z,100346.88
2022-08-20T18:31:32.676Z,100348.35
2022-08-20T18:34:16.030Z,100347.45
2022-08-20T18:36:56.986Z,100347.63
2022-08-20T18:39:32.023Z,100345.55
2022-08-20T18:42:05.773Z,100348.55
2022-08-20T18:44:45.034Z,100355.14
2022-08-20T18:47:25.660Z,100351.26
2022-08-20T18:50:16.800Z,100349.11
2022-08-20T18:52:50.876Z,100347.60
2022-08-20T18:55:34.298Z,100348.50
2022-08-20T18:58:08.943Z,100356.55
2022-08-20T19:00:44.276Z,100356.52
2022-08-20T19:03:26.233Z,100361.24
2022-08-20T19:06:18.187Z,100360.89
2022-08-20T19:08:53.837Z,100362.87
2022-08-20T19:11:45.572Z,100368.93
2022-08-20T19:14:42.150Z,100367.37
2022-08-20T19:17:17.519Z,100368.61
2022-08-20T19:19:58.919Z,100369.63
2022-08-20T19:22:30.239Z,100370.08
2022-08-20T19:25:01.169Z,100364.13
2022-08-20T19:27:32.407Z,100373.66
2022-08-20T19:30:03.412Z,100369.08
2022-08-20T19:32:37.252Z,100367.95
2022-08-20T19:35:18.501Z,100370.84
2022-08-20T19:37:51.060Z,100366.21
2022-08-20T19:40:28.800Z,100363.23
2022-08-20T19:43:02.022Z,100361.04
2022-08-20T19:45:40.743Z,100363.98
2022-08-20T19:48:27.367Z,100364.16
2022-08-20T19:51:07.730Z,100362.92
2022-08-20T19:53:44.842Z,100361.15
2022-08-20T19:56:19.500Z,100358.67
2022-08-20T19:59:01.917Z,100354.70
2022-08-20T20:01:33.608Z,100356.23
2022-08-20T20:04:07.326Z,100357.04
2022-08-20T20:06:44.648Z,100359.58
2022-08-20T20:09:22.215Z,100359.11
2022-08-20T20:11:57.870Z,100359.55
2022-08-20T20:14:31.256Z,100358.28
2022-08-20T20:17:05.301Z,100354.45
2022-08-20T20:19:48.390Z,100351.93
2022-08-20T20:22:26.095Z,100348.41
2022-08-20T20:25:08.946Z,100352.03
2022-08-20T20:27:40.076Z,100351.98
2022-08-20T20:30:21.727Z,100348.14
2022-08-20T20:32:53.287Z,100346.73
2022-08-20T20:35:31.012Z,100345.41
2022-08-20T20:38:06.878Z,100340.98
2022-08-20T20:40:47.699Z,100337.19
2022-08-20T20:43:33.705Z,100338.05
2022-08-20T20:46:19.057Z,100340.37
2022-08-20T20:48:52.546Z,100335.38
2022-08-20T20:51:27.966Z,100337.96
2022-08-20T20:54:01.858Z,100332.56
2022-08-20T20:56:37.960Z,100330.94
2022-08-20T20:59:10.695Z,100330.88
2022-08-20T21:01:50.054Z,100326.68
2022-08-20T21:04:24.164Z,100326.52
2022-08-20T21:06:59.517Z,100321.74
2022-08-20T21:09:30.211Z,100324.32
2022-08-20T21:12:00.913Z,100321.87
2022-08-20T21:14:32.021Z,100321.25
2022-08-20T21:17:05.441Z,100316.74
2022-08-20T21:19:41.107Z,100310.61
2022-08-20T21:22:20.834Z,100295.80
2022-08-20T21:24:51.542Z,100306.58
2022-08-20T21:27:25.593Z,100302.55
2022-08-20T21:29:56.651Z,100300.64
2022-08-20T21:32:27.548Z,100299.81
2022-08-20T21:34:58.183Z,100296.76
2022-08-20T21:37:28.940Z,100296.93
2022-08-20T21:40:00.214Z,100295.96
2022-08-20T21:42:37.250Z,100295.44
2022-08-20T21:45:11.511Z,100296.48
2022-08-20T21:47:42.874Z,100299.55
2022-08-20T21:50:19.282Z,100298.88
2022-08-20T21:52:59.161Z,100297.23
2022-08-20T21:55:39.419Z,100293.21
2022-08-20T21:58:13.628Z,100291.73
2022-08-20T22:00:54.799Z,100289.95
2022-08-20T22:03:28.053Z,100291.04
2022-08-20T22:05:59.473Z,100288.13
2022-08-20T22:08:30.708Z,100284.40
2022-08-20T22:11:02.918Z,100283.95
2022-08-20T22:13:34.731Z,100285.30
2022-08-20T22:16:08.407Z,100284.20
2022-08-20T22:18:39.544Z,100286.63
2022-08-20T22:21:16.159Z,100284.42
2022-08-20T22:23:46.921Z,100284.59
2022-08-20T22:26:18.969Z,100283.44
2022-08-20T22:28:51.207Z,100284.33
2022-08-20T22:31:29.949Z,100283.95
2022-08-20T22:34:01.446Z,100281.73
2022-08-20T22:36:32.658Z,100289.45
2022-08-20T22:39:03.440Z,100293.61
2022-08-20T22:41:34.201Z,100291.77
2022-08-20T22:44:05.343Z,100290.02
2022-08-20T22:46:43.686Z,100289.36
2022-08-20T22:49:22.862Z,100295.46
2022-08-20T22:51:53.547Z,100291.98
2022-08-20T22:54:25.747Z,100292.52
2022-08-20T22:56:57.011Z,100292.11
2022-08-20T22:59:27.732Z,100297.48
2022-08-20T23:01:59.134Z,100294.89
2022-08-20T23:04:33.560Z,100293.60
2022-08-20T23:07:05.773Z,100292.94
2022-08-20T23:09:36.439Z,100293.05
2022-08-20T23:12:08.697Z,100293.11
2022-08-20T23:14:39.644Z,100294.98
2022-08-20T23:17:13.963Z,100297.00
2022-08-20T23:19:48.411Z,100296.75
2022-08-20T23:22:20.290Z,100297.83
2022-08-20T23:24:50.924Z,100296.01
2022-08-20T23:27:22.905Z,100294.10
2022-08-20T23:29:52.125Z,100290.33
2022-08-20T23:32:22.849Z,100284.43
2022-08-20T23:34:53.778Z,100281.77
2022-08-20T23:37:25.020Z,100279.65
2022-08-20T23:39:55.763Z,100285.20
2022-08-20T23:42:26.547Z,100284.84
2022-08-20T23:44:57.198Z,100287.63
2022-08-20T23:47:28.466Z,100286.90
2022-08-20T23:49:59.291Z,100291.36
2022-08-20T23:52:30.445Z,100284.73
2022-08-20T23:55:01.112Z,100281.77
2022-08-20T23:57:31.956Z,100283.23
